sensor_id;sensor_type;location;lat;lon;timestamp;temperature;humidity
48806;DHT22;34625;47.176;27.548;2023-07-13T00:01:30;28.20;53.30
48806;DHT22;34625;47.176;27.548;2023-07-13T00:03:59;28.30;53.30
48806;DHT22;34625;47.176;27.548;2023-07-13T00:06:25;28.20;53.30
48806;DHT22;34625;47.176;27.548;2023-07-13T00:08:54;28.20;53.30
48806;DHT22;34625;47.176;27.548;2023-07-13T00:11:20;28.20;53.30
48806;DHT22;34625;47.176;27.548;2023-07-13T00:13:46;28.30;53.30
48806;DHT22;34625;47.176;27.548;2023-07-13T00:16:13;28.20;53.30
48806;DHT22;34625;47.176;27.548;2023-07-13T00:18:40;28.10;53.30
48806;DHT22;34625;47.176;27.548;2023-07-13T00:21:06;28.30;53.40
48806;DHT22;34625;47.176;27.548;2023-07-13T00:23:36;28.20;53.40
48806;DHT22;34625;47.176;27.548;2023-07-13T00:26:04;28.20;53.40
48806;DHT22;34625;47.176;27.548;2023-07-13T00:28:31;28.20;53.40
48806;DHT22;34625;47.176;27.548;2023-07-13T00:30:57;28.10;53.50
48806;DHT22;34625;47.176;27.548;2023-07-13T00:33:24;28.10;53.50
48806;DHT22;34625;47.176;27.548;2023-07-13T00:35:50;28.20;53.60
48806;DHT22;34625;47.176;27.548;2023-07-13T00:38:16;28.20;53.60
48806;DHT22;34625;47.176;27.548;2023-07-13T00:40:42;28.10;53.50
48806;DHT22;34625;47.176;27.548;2023-07-13T00:43:15;28.10;53.50
48806;DHT22;34625;47.176;27.548;2023-07-13T00:48:12;28.20;53.60
48806;DHT22;34625;47.176;27.548;2023-07-13T00:50:40;28.20;53.60
48806;DHT22;34625;47.176;27.548;2023-07-13T00:53:07;28.20;53.60
48806;DHT22;34625;47.176;27.548;2023-07-13T00:55:34;28.20;53.60
48806;DHT22;34625;47.176;27.548;2023-07-13T00:58:01;28.20;53.60
48806;DHT22;34625;47.176;27.548;2023-07-13T01:00:29;28.20;53.60
48806;DHT22;34625;47.176;27.548;2023-07-13T01:02:55;28.20;53.60
48806;DHT22;34625;47.176;27.548;2023-07-13T01:05:24;28.20;53.70
48806;DHT22;34625;47.176;27.548;2023-07-13T01:07:51;28.20;53.60
48806;DHT22;34625;47.176;27.548;2023-07-13T01:10:21;28.20;53.60
48806;DHT22;34625;47.176;27.548;2023-07-13T01:12:48;28.20;53.60
48806;DHT22;34625;47.176;27.548;2023-07-13T01:15:53;28.10;53.60
48806;DHT22;34625;47.176;27.548;2023-07-13T01:18:22;28.10;53.70
48806;DHT22;34625;47.176;27.548;2023-07-13T01:21:01;28.10;53.70
48806;DHT22;34625;47.176;27.548;2023-07-13T01:23:29;28.00;53.70
48806;DHT22;34625;47.176;27.548;2023-07-13T01:25:56;28.00;53.80
48806;DHT22;34625;47.176;27.548;2023-07-13T01:28:24;28.10;53.80
48806;DHT22;34625;47.176;27.548;2023-07-13T01:30:54;28.10;53.90
48806;DHT22;34625;47.176;27.548;2023-07-13T01:33:20;28.10;53.90
48806;DHT22;34625;47.176;27.548;2023-07-13T01:35:46;28.10;53.90
48806;DHT22;34625;47.176;27.548;2023-07-13T01:38:18;28.10;54.00
48806;DHT22;34625;47.176;27.548;2023-07-13T01:40:45;28.10;54.00
48806;DHT22;34625;47.176;27.548;2023-07-13T01:43:11;28.10;54.00
48806;DHT22;34625;47.176;27.548;2023-07-13T01:45:37;28.10;54.00
48806;DHT22;34625;47.176;27.548;2023-07-13T01:48:04;28.10;54.10
48806;DHT22;34625;47.176;27.548;2023-07-13T01:50:33;28.10;54.10
48806;DHT22;34625;47.176;27.548;2023-07-13T01:52:59;28.10;54.10
48806;DHT22;34625;47.176;27.548;2023-07-13T01:55:25;28.00;54.10
48806;DHT22;34625;47.176;27.548;2023-07-13T01:57:51;28.20;54.10
48806;DHT22;34625;47.176;27.548;2023-07-13T02:00:17;28.10;54.10
48806;DHT22;34625;47.176;27.548;2023-07-13T02:02:47;28.10;54.10
48806;DHT22;34625;47.176;27.548;2023-07-13T02:05:13;28.10;54.00
48806;DHT22;34625;47.176;27.548;2023-07-13T02:07:41;28.10;54.10
48806;DHT22;34625;47.176;27.548;2023-07-13T02:10:08;28.00;54.10
48806;DHT22;34625;47.176;27.548;2023-07-13T02:12:35;28.10;54.10
48806;DHT22;34625;47.176;27.548;2023-07-13T02:15:02;28.10;54.20
48806;DHT22;34625;47.176;27.548;2023-07-13T02:17:29;28.10;54.20
48806;DHT22;34625;47.176;27.548;2023-07-13T02:19:55;28.00;54.30
48806;DHT22;34625;47.176;27.548;2023-07-13T02:22:21;28.00;54.30
48806;DHT22;34625;47.176;27.548;2023-07-13T02:24:48;28.00;54.30
48806;DHT22;34625;47.176;27.548;2023-07-13T02:27:16;28.00;54.30
48806;DHT22;34625;47.176;27.548;2023-07-13T02:29:42;28.00;54.30
48806;DHT22;34625;47.176;27.548;2023-07-13T02:32:08;28.00;54.30
48806;DHT22;34625;47.176;27.548;2023-07-13T02:34:34;28.00;54.30
48806;DHT22;34625;47.176;27.548;2023-07-13T02:37:00;27.90;53.90
48806;DHT22;34625;47.176;27.548;2023-07-13T02:39:26;28.00;54.40
48806;DHT22;34625;47.176;27.548;2023-07-13T02:41:52;28.00;54.40
48806;DHT22;34625;47.176;27.548;2023-07-13T02:44:19;28.00;54.40
48806;DHT22;34625;47.176;27.548;2023-07-13T02:46:45;27.90;53.90
48806;DHT22;34625;47.176;27.548;2023-07-13T02:49:11;27.90;53.80
48806;DHT22;34625;47.176;27.548;2023-07-13T02:51:37;27.90;53.90
48806;DHT22;34625;47.176;27.548;2023-07-13T02:54:04;27.90;54.00
48806;DHT22;34625;47.176;27.548;2023-07-13T02:56:32;27.90;54.00
48806;DHT22;34625;47.176;27.548;2023-07-13T02:58:58;28.00;54.60
48806;DHT22;34625;47.176;27.548;2023-07-13T03:01:24;28.00;54.70
48806;DHT22;34625;47.176;27.548;2023-07-13T03:03:52;27.90;54.20
48806;DHT22;34625;47.176;27.548;2023-07-13T03:06:19;28.00;54.70
48806;DHT22;34625;47.176;27.548;2023-07-13T03:08:50;28.00;54.70
48806;DHT22;34625;47.176;27.548;2023-07-13T03:11:19;28.00;54.80
48806;DHT22;34625;47.176;27.548;2023-07-13T03:13:49;28.00;54.80
48806;DHT22;34625;47.176;27.548;2023-07-13T03:16:16;28.00;54.80
48806;DHT22;34625;47.176;27.548;2023-07-13T03:18:45;28.00;54.80
48806;DHT22;34625;47.176;27.548;2023-07-13T03:21:12;28.10;54.90
48806;DHT22;34625;47.176;27.548;2023-07-13T03:23:39;28.10;54.80
48806;DHT22;34625;47.176;27.548;2023-07-13T03:26:17;28.10;54.90
48806;DHT22;34625;47.176;27.548;2023-07-13T03:28:44;28.00;54.80
48806;DHT22;34625;47.176;27.548;2023-07-13T03:31:18;28.10;54.80
48806;DHT22;34625;47.176;27.548;2023-07-13T03:33:45;28.20;54.90
48806;DHT22;34625;47.176;27.548;2023-07-13T03:36:18;28.20;54.80
48806;DHT22;34625;47.176;27.548;2023-07-13T03:38:50;28.10;54.80
48806;DHT22;34625;47.176;27.548;2023-07-13T03:41:18;28.20;54.80
48806;DHT22;34625;47.176;27.548;2023-07-13T03:43:44;28.20;54.80
48806;DHT22;34625;47.176;27.548;2023-07-13T03:46:11;28.20;54.80
48806;DHT22;34625;47.176;27.548;2023-07-13T03:48:37;28.20;54.70
48806;DHT22;34625;47.176;27.548;2023-07-13T03:51:05;28.20;54.70
48806;DHT22;34625;47.176;27.548;2023-07-13T03:53:31;28.10;54.70
48806;DHT22;34625;47.176;27.548;2023-07-13T03:55:57;28.20;54.80
48806;DHT22;34625;47.176;27.548;2023-07-13T03:58:36;28.20;54.80
48806;DHT22;34625;47.176;27.548;2023-07-13T04:01:11;28.20;54.80
48806;DHT22;34625;47.176;27.548;2023-07-13T04:03:38;28.30;54.80
48806;DHT22;34625;47.176;27.548;2023-07-13T04:06:08;28.20;54.80
48806;DHT22;34625;47.176;27.548;2023-07-13T04:08:41;28.20;57.20
48806;DHT22;34625;47.176;27.548;2023-07-13T04:11:07;28.60;59.50
48806;DHT22;34625;47.176;27.548;2023-07-13T04:13:33;28.90;59.90
48806;DHT22;34625;47.176;27.548;2023-07-13T04:15:59;29.10;63.40
48806;DHT22;34625;47.176;27.548;2023-07-13T04:18:25;29.10;57.60
48806;DHT22;34625;47.176;27.548;2023-07-13T04:20:51;29.00;57.10
48806;DHT22;34625;47.176;27.548;2023-07-13T04:23:17;28.90;56.20
48806;DHT22;34625;47.176;27.548;2023-07-13T04:25:48;28.80;56.00
48806;DHT22;34625;47.176;27.548;2023-07-13T04:28:20;28.80;56.00
48806;DHT22;34625;47.176;27.548;2023-07-13T04:30:46;28.80;56.20
48806;DHT22;34625;47.176;27.548;2023-07-13T04:33:12;28.70;56.20
48806;DHT22;34625;47.176;27.548;2023-07-13T04:35:38;28.70;56.30
48806;DHT22;34625;47.176;27.548;2023-07-13T04:38:04;28.80;56.20
48806;DHT22;34625;47.176;27.548;2023-07-13T04:40:31;28.80;56.30
48806;DHT22;34625;47.176;27.548;2023-07-13T04:42:57;28.60;56.30
48806;DHT22;34625;47.176;27.548;2023-07-13T04:45:24;28.80;56.50
48806;DHT22;34625;47.176;27.548;2023-07-13T04:47:50;28.80;56.60
48806;DHT22;34625;47.176;27.548;2023-07-13T04:50:16;28.70;56.50
48806;DHT22;34625;47.176;27.548;2023-07-13T04:52:46;28.70;56.50
48806;DHT22;34625;47.176;27.548;2023-07-13T04:55:13;28.70;56.40
48806;DHT22;34625;47.176;27.548;2023-07-13T04:57:39;29.00;56.10
48806;DHT22;34625;47.176;27.548;2023-07-13T05:00:06;28.70;55.00
48806;DHT22;34625;47.176;27.548;2023-07-13T05:02:33;28.60;54.30
48806;DHT22;34625;47.176;27.548;2023-07-13T05:05:00;28.60;54.50
48806;DHT22;34625;47.176;27.548;2023-07-13T05:07:26;28.80;57.80
48806;DHT22;34625;47.176;27.548;2023-07-13T05:09:53;28.90;58.10
48806;DHT22;34625;47.176;27.548;2023-07-13T05:12:19;28.80;55.80
48806;DHT22;34625;47.176;27.548;2023-07-13T05:14:45;29.00;56.20
48806;DHT22;34625;47.176;27.548;2023-07-13T05:17:11;29.00;56.50
48806;DHT22;34625;47.176;27.548;2023-07-13T05:19:37;28.90;56.60
48806;DHT22;34625;47.176;27.548;2023-07-13T05:22:03;28.80;55.40
48806;DHT22;34625;47.176;27.548;2023-07-13T05:24:30;28.80;55.70
48806;DHT22;34625;47.176;27.548;2023-07-13T05:26:56;28.80;55.40
48806;DHT22;34625;47.176;27.548;2023-07-13T05:29:22;28.90;55.80
48806;DHT22;34625;47.176;27.548;2023-07-13T05:31:49;28.80;56.90
48806;DHT22;34625;47.176;27.548;2023-07-13T05:34:15;28.90;56.80
48806;DHT22;34625;47.176;27.548;2023-07-13T05:36:41;28.90;56.10
48806;DHT22;34625;47.176;27.548;2023-07-13T05:39:07;28.90;56.80
48806;DHT22;34625;47.176;27.548;2023-07-13T05:41:35;28.90;56.30
48806;DHT22;34625;47.176;27.548;2023-07-13T05:44:01;28.90;56.20
48806;DHT22;34625;47.176;27.548;2023-07-13T05:46:27;28.90;57.30
48806;DHT22;34625;47.176;27.548;2023-07-13T05:48:53;28.90;56.70
48806;DHT22;34625;47.176;27.548;2023-07-13T05:51:19;28.90;55.60
48806;DHT22;34625;47.176;27.548;2023-07-13T05:53:45;28.90;54.90
48806;DHT22;34625;47.176;27.548;2023-07-13T05:56:11;28.90;55.20
48806;DHT22;34625;47.176;27.548;2023-07-13T05:58:37;28.90;55.40
48806;DHT22;34625;47.176;27.548;2023-07-13T06:01:10;28.80;55.40
48806;DHT22;34625;47.176;27.548;2023-07-13T06:03:36;29.00;55.70
48806;DHT22;34625;47.176;27.548;2023-07-13T06:06:08;29.00;55.80
48806;DHT22;34625;47.176;27.548;2023-07-13T06:08:35;29.00;55.80
48806;DHT22;34625;47.176;27.548;2023-07-13T06:13:39;28.90;54.70
48806;DHT22;34625;47.176;27.548;2023-07-13T06:16:05;28.90;54.70
48806;DHT22;34625;47.176;27.548;2023-07-13T06:18:33;28.80;54.70
48806;DHT22;34625;47.176;27.548;2023-07-13T06:20:59;28.80;54.90
48806;DHT22;34625;47.176;27.548;2023-07-13T06:23:25;28.80;54.50
48806;DHT22;34625;47.176;27.548;2023-07-13T06:25:51;28.90;54.20
48806;DHT22;34625;47.176;27.548;2023-07-13T06:28:18;28.80;55.00
48806;DHT22;34625;47.176;27.548;2023-07-13T06:30:44;28.70;56.00
48806;DHT22;34625;47.176;27.548;2023-07-13T06:33:10;29.20;56.10
48806;DHT22;34625;47.176;27.548;2023-07-13T06:35:36;29.40;58.10
48806;DHT22;34625;47.176;27.548;2023-07-13T06:38:02;29.60;57.10
48806;DHT22;34625;47.176;27.548;2023-07-13T06:40:28;29.70;54.70
48806;DHT22;34625;47.176;27.548;2023-07-13T06:42:56;29.50;54.50
48806;DHT22;34625;47.176;27.548;2023-07-13T06:45:22;29.50;54.50
48806;DHT22;34625;47.176;27.548;2023-07-13T06:47:48;29.40;55.00
48806;DHT22;34625;47.176;27.548;2023-07-13T06:50:15;29.30;54.80
48806;DHT22;34625;47.176;27.548;2023-07-13T06:52:41;29.30;57.30
48806;DHT22;34625;47.176;27.548;2023-07-13T06:55:08;29.60;57.30
48806;DHT22;34625;47.176;27.548;2023-07-13T06:57:34;29.70;57.10
48806;DHT22;34625;47.176;27.548;2023-07-13T07:00:00;29.90;57.90
48806;DHT22;34625;47.176;27.548;2023-07-13T07:02:26;30.20;65.80
48806;DHT22;34625;47.176;27.548;2023-07-13T07:04:52;30.30;60.60
48806;DHT22;34625;47.176;27.548;2023-07-13T07:07:19;30.20;58.00
48806;DHT22;34625;47.176;27.548;2023-07-13T07:09:45;30.20;62.00
48806;DHT22;34625;47.176;27.548;2023-07-13T07:12:11;30.30;58.20
48806;DHT22;34625;47.176;27.548;2023-07-13T07:14:37;30.40;59.30
48806;DHT22;34625;47.176;27.548;2023-07-13T07:17:04;30.30;58.90
48806;DHT22;34625;47.176;27.548;2023-07-13T07:19:30;30.50;57.50
48806;DHT22;34625;47.176;27.548;2023-07-13T07:21:56;30.50;58.70
48806;DHT22;34625;47.176;27.548;2023-07-13T07:24:22;30.50;59.80
48806;DHT22;34625;47.176;27.548;2023-07-13T07:26:48;30.70;57.80
48806;DHT22;34625;47.176;27.548;2023-07-13T07:29:14;30.60;58.10
48806;DHT22;34625;47.176;27.548;2023-07-13T07:31:40;30.80;59.10
48806;DHT22;34625;47.176;27.548;2023-07-13T07:34:06;30.70;54.60
48806;DHT22;34625;47.176;27.548;2023-07-13T07:36:32;30.90;60.90
48806;DHT22;34625;47.176;27.548;2023-07-13T07:38:58;31.00;57.00
48806;DHT22;34625;47.176;27.548;2023-07-13T07:41:24;30.90;55.30
48806;DHT22;34625;47.176;27.548;2023-07-13T07:43:50;30.90;56.50
48806;DHT22;34625;47.176;27.548;2023-07-13T07:46:16;31.00;58.20
48806;DHT22;34625;47.176;27.548;2023-07-13T07:48:42;31.00;56.50
48806;DHT22;34625;47.176;27.548;2023-07-13T07:51:08;31.10;56.90
48806;DHT22;34625;47.176;27.548;2023-07-13T07:53:34;31.00;57.50
48806;DHT22;34625;47.176;27.548;2023-07-13T07:56:00;30.90;57.20
48806;DHT22;34625;47.176;27.548;2023-07-13T07:58:26;31.10;57.80
48806;DHT22;34625;47.176;27.548;2023-07-13T08:00:52;31.00;58.90
48806;DHT22;34625;47.176;27.548;2023-07-13T08:03:18;31.20;58.60
48806;DHT22;34625;47.176;27.548;2023-07-13T08:05:43;31.10;57.00
48806;DHT22;34625;47.176;27.548;2023-07-13T08:08:09;30.90;54.00
48806;DHT22;34625;47.176;27.548;2023-07-13T08:10:36;31.10;54.70
48806;DHT22;34625;47.176;27.548;2023-07-13T08:13:03;31.00;56.60
48806;DHT22;34625;47.176;27.548;2023-07-13T08:15:29;31.10;56.80
48806;DHT22;34625;47.176;27.548;2023-07-13T08:17:55;31.10;59.60
48806;DHT22;34625;47.176;27.548;2023-07-13T08:20:21;31.00;57.00
48806;DHT22;34625;47.176;27.548;2023-07-13T08:22:47;31.00;54.70
48806;DHT22;34625;47.176;27.548;2023-07-13T08:25:13;31.00;54.70
48806;DHT22;34625;47.176;27.548;2023-07-13T08:27:39;31.00;55.00
48806;DHT22;34625;47.176;27.548;2023-07-13T08:30:05;30.90;55.20
48806;DHT22;34625;47.176;27.548;2023-07-13T08:32:32;31.00;58.40
48806;DHT22;34625;47.176;27.548;2023-07-13T08:34:58;31.00;59.50
48806;DHT22;34625;47.176;27.548;2023-07-13T08:37:24;31.00;58.70
48806;DHT22;34625;47.176;27.548;2023-07-13T08:39:50;30.90;56.40
48806;DHT22;34625;47.176;27.548;2023-07-13T08:42:39;30.90;62.50
48806;DHT22;34625;47.176;27.548;2023-07-13T08:48:01;30.90;54.90
48806;DHT22;34625;47.176;27.548;2023-07-13T08:50:35;30.90;55.90
48806;DHT22;34625;47.176;27.548;2023-07-13T08:53:02;30.80;55.20
48806;DHT22;34625;47.176;27.548;2023-07-13T08:55:33;30.60;54.60
48806;DHT22;34625;47.176;27.548;2023-07-13T08:58:05;30.80;61.80
48806;DHT22;34625;47.176;27.548;2023-07-13T09:03:23;30.70;56.70
48806;DHT22;34625;47.176;27.548;2023-07-13T09:05:54;30.60;55.70
48806;DHT22;34625;47.176;27.548;2023-07-13T09:08:38;30.60;55.00
48806;DHT22;34625;47.176;27.548;2023-07-13T09:11:22;30.50;54.60
48806;DHT22;34625;47.176;27.548;2023-07-13T09:16:27;30.70;54.00
48806;DHT22;34625;47.176;27.548;2023-07-13T09:19:05;30.60;54.20
48806;DHT22;34625;47.176;27.548;2023-07-13T09:21:37;30.80;54.50
48806;DHT22;34625;47.176;27.548;2023-07-13T09:27:17;30.60;54.60
48806;DHT22;34625;47.176;27.548;2023-07-13T09:29:54;30.50;54.50
48806;DHT22;34625;47.176;27.548;2023-07-13T09:32:24;30.50;54.50
48806;DHT22;34625;47.176;27.548;2023-07-13T09:34:53;30.50;54.50
48806;DHT22;34625;47.176;27.548;2023-07-13T09:37:30;30.50;54.40
48806;DHT22;34625;47.176;27.548;2023-07-13T09:39:59;30.50;54.80
48806;DHT22;34625;47.176;27.548;2023-07-13T09:42:25;30.40;55.30
48806;DHT22;34625;47.176;27.548;2023-07-13T09:44:54;30.50;55.40
48806;DHT22;34625;47.176;27.548;2023-07-13T09:47:25;30.40;55.30
48806;DHT22;34625;47.176;27.548;2023-07-13T09:50:03;30.40;55.30
48806;DHT22;34625;47.176;27.548;2023-07-13T09:52:45;30.50;55.50
48806;DHT22;34625;47.176;27.548;2023-07-13T09:57:56;30.30;55.50
48806;DHT22;34625;47.176;27.548;2023-07-13T10:00:28;30.30;55.80
48806;DHT22;34625;47.176;27.548;2023-07-13T10:03:03;30.30;55.60
48806;DHT22;34625;47.176;27.548;2023-07-13T10:05:38;30.30;55.30
48806;DHT22;34625;47.176;27.548;2023-07-13T10:08:05;30.30;55.10
48806;DHT22;34625;47.176;27.548;2023-07-13T10:10:33;30.30;55.10
48806;DHT22;34625;47.176;27.548;2023-07-13T10:13:01;30.20;55.20
48806;DHT22;34625;47.176;27.548;2023-07-13T10:15:30;30.20;56.00
48806;DHT22;34625;47.176;27.548;2023-07-13T10:17:56;30.20;57.50
48806;DHT22;34625;47.176;27.548;2023-07-13T10:20:24;30.10;56.50
48806;DHT22;34625;47.176;27.548;2023-07-13T10:23:13;30.10;57.40
48806;DHT22;34625;47.176;27.548;2023-07-13T10:25:43;30.20;58.70
48806;DHT22;34625;47.176;27.548;2023-07-13T10:30:39;29.90;58.20
48806;DHT22;34625;47.176;27.548;2023-07-13T10:33:13;29.90;57.10
48806;DHT22;34625;47.176;27.548;2023-07-13T10:35:43;30.10;57.20
48806;DHT22;34625;47.176;27.548;2023-07-13T10:38:22;30.10;57.00
48806;DHT22;34625;47.176;27.548;2023-07-13T10:41:03;29.90;56.20
48806;DHT22;34625;47.176;27.548;2023-07-13T10:43:41;29.90;56.20
48806;DHT22;34625;47.176;27.548;2023-07-13T10:46:11;29.90;56.30
48806;DHT22;34625;47.176;27.548;2023-07-13T10:48:39;29.80;56.20
48806;DHT22;34625;47.176;27.548;2023-07-13T10:51:06;29.90;56.20
48806;DHT22;34625;47.176;27.548;2023-07-13T10:53:37;29.80;56.30
48806;DHT22;34625;47.176;27.548;2023-07-13T10:56:29;29.90;56.40
48806;DHT22;34625;47.176;27.548;2023-07-13T10:59:17;29.90;56.30
48806;DHT22;34625;47.176;27.548;2023-07-13T11:01:52;29.80;56.40
48806;DHT22;34625;47.176;27.548;2023-07-13T11:04:21;29.80;56.60
48806;DHT22;34625;47.176;27.548;2023-07-13T11:06:50;30.00;60.70
48806;DHT22;34625;47.176;27.548;2023-07-13T11:12:02;30.30;59.50
48806;DHT22;34625;47.176;27.548;2023-07-13T11:20:22;30.00;57.50
48806;DHT22;34625;47.176;27.548;2023-07-13T11:23:07;30.00;57.30
48806;DHT22;34625;47.176;27.548;2023-07-13T11:25:35;30.00;57.20
48806;DHT22;34625;47.176;27.548;2023-07-13T11:36:03;29.80;57.00
48806;DHT22;34625;47.176;27.548;2023-07-13T11:38:41;29.80;57.10
48806;DHT22;34625;47.176;27.548;2023-07-13T11:41:17;29.90;57.20
48806;DHT22;34625;47.176;27.548;2023-07-13T11:43:45;29.90;57.20
48806;DHT22;34625;47.176;27.548;2023-07-13T11:46:19;29.90;57.10
48806;DHT22;34625;47.176;27.548;2023-07-13T11:48:46;29.70;57.10
48806;DHT22;34625;47.176;27.548;2023-07-13T11:51:34;29.90;57.10
48806;DHT22;34625;47.176;27.548;2023-07-13T11:54:10;29.70;57.20
48806;DHT22;34625;47.176;27.548;2023-07-13T11:56:40;29.80;57.20
48806;DHT22;34625;47.176;27.548;2023-07-13T11:59:10;29.60;57.20
48806;DHT22;34625;47.176;27.548;2023-07-13T12:01:43;29.90;57.30
48806;DHT22;34625;47.176;27.548;2023-07-13T12:04:20;29.70;57.30
48806;DHT22;34625;47.176;27.548;2023-07-13T12:06:57;29.80;57.20
48806;DHT22;34625;47.176;27.548;2023-07-13T12:09:26;29.70;57.20
48806;DHT22;34625;47.176;27.548;2023-07-13T12:11:53;29.80;57.20
48806;DHT22;34625;47.176;27.548;2023-07-13T12:14:20;29.70;57.30
48806;DHT22;34625;47.176;27.548;2023-07-13T12:16:47;29.70;57.30
48806;DHT22;34625;47.176;27.548;2023-07-13T12:19:22;29.50;57.40
48806;DHT22;34625;47.176;27.548;2023-07-13T12:21:50;29.50;57.50
48806;DHT22;34625;47.176;27.548;2023-07-13T12:24:18;29.70;57.50
48806;DHT22;34625;47.176;27.548;2023-07-13T12:26:46;29.60;57.50
48806;DHT22;34625;47.176;27.548;2023-07-13T12:29:17;29.60;57.60
48806;DHT22;34625;47.176;27.548;2023-07-13T12:31:45;29.50;57.90
48806;DHT22;34625;47.176;27.548;2023-07-13T12:34:20;29.60;58.40
48806;DHT22;34625;47.176;27.548;2023-07-13T12:41:45;29.60;57.40
48806;DHT22;34625;47.176;27.548;2023-07-13T12:44:13;29.60;57.10
48806;DHT22;34625;47.176;27.548;2023-07-13T12:46:41;29.60;56.90
48806;DHT22;34625;47.176;27.548;2023-07-13T12:49:17;29.60;56.80
48806;DHT22;34625;47.176;27.548;2023-07-13T12:51:44;29.60;56.70
48806;DHT22;34625;47.176;27.548;2023-07-13T12:54:17;29.40;56.80
48806;DHT22;34625;47.176;27.548;2023-07-13T12:56:44;29.40;56.90
48806;DHT22;34625;47.176;27.548;2023-07-13T12:59:18;29.40;56.80
48806;DHT22;34625;47.176;27.548;2023-07-13T13:01:46;29.30;57.40
48806;DHT22;34625;47.176;27.548;2023-07-13T13:04:12;28.90;57.00
48806;DHT22;34625;47.176;27.548;2023-07-13T13:06:39;29.00;57.30
48806;DHT22;34625;47.176;27.548;2023-07-13T13:09:15;29.00;57.20
48806;DHT22;34625;47.176;27.548;2023-07-13T13:11:41;29.00;57.00
48806;DHT22;34625;47.176;27.548;2023-07-13T13:14:08;29.10;57.00
48806;DHT22;34625;47.176;27.548;2023-07-13T13:16:43;29.20;56.90
48806;DHT22;34625;47.176;27.548;2023-07-13T13:19:14;29.10;56.80
48806;DHT22;34625;47.176;27.548;2023-07-13T13:21:42;29.20;56.70
48806;DHT22;34625;47.176;27.548;2023-07-13T13:24:13;29.20;56.70
48806;DHT22;34625;47.176;27.548;2023-07-13T13:26:40;29.20;56.70
48806;DHT22;34625;47.176;27.548;2023-07-13T13:29:15;29.20;56.70
48806;DHT22;34625;47.176;27.548;2023-07-13T13:31:42;29.10;56.70
48806;DHT22;34625;47.176;27.548;2023-07-13T13:34:13;29.30;56.80
48806;DHT22;34625;47.176;27.548;2023-07-13T13:36:41;29.20;56.90
48806;DHT22;34625;47.176;27.548;2023-07-13T13:41:53;29.10;57.00
48806;DHT22;34625;47.176;27.548;2023-07-13T13:44:20;29.20;57.00
48806;DHT22;34625;47.176;27.548;2023-07-13T13:46:49;29.20;57.10
48806;DHT22;34625;47.176;27.548;2023-07-13T13:49:19;29.10;57.20
48806;DHT22;34625;47.176;27.548;2023-07-13T13:51:45;29.20;57.20
48806;DHT22;34625;47.176;27.548;2023-07-13T13:54:13;29.20;57.30
48806;DHT22;34625;47.176;27.548;2023-07-13T13:56:44;29.20;57.30
48806;DHT22;34625;47.176;27.548;2023-07-13T13:59:11;29.10;57.30
48806;DHT22;34625;47.176;27.548;2023-07-13T14:01:38;29.30;57.30
48806;DHT22;34625;47.176;27.548;2023-07-13T14:04:04;29.10;57.40
48806;DHT22;34625;47.176;27.548;2023-07-13T14:06:32;29.10;58.00
48806;DHT22;34625;47.176;27.548;2023-07-13T14:08:59;29.20;58.20
48806;DHT22;34625;47.176;27.548;2023-07-13T14:11:26;29.10;58.20
48806;DHT22;34625;47.176;27.548;2023-07-13T14:13:57;28.90;57.60
48806;DHT22;34625;47.176;27.548;2023-07-13T14:16:27;29.00;57.80
48806;DHT22;34625;47.176;27.548;2023-07-13T14:18:55;29.00;57.90
48806;DHT22;34625;47.176;27.548;2023-07-13T14:21:24;29.10;57.90
48806;DHT22;34625;47.176;27.548;2023-07-13T14:23:50;29.00;58.10
48806;DHT22;34625;47.176;27.548;2023-07-13T14:26:22;29.00;58.10
48806;DHT22;34625;47.176;27.548;2023-07-13T14:28:51;28.90;57.70
48806;DHT22;34625;47.176;27.548;2023-07-13T14:31:18;29.00;58.30
48806;DHT22;34625;47.176;27.548;2023-07-13T14:33:45;29.00;58.30
48806;DHT22;34625;47.176;27.548;2023-07-13T14:36:31;28.90;57.80
48806;DHT22;34625;47.176;27.548;2023-07-13T14:38:59;28.90;57.80
48806;DHT22;34625;47.176;27.548;2023-07-13T14:41:26;29.00;58.40
48806;DHT22;34625;47.176;27.548;2023-07-13T14:43:52;28.90;57.90
48806;DHT22;34625;47.176;27.548;2023-07-13T14:46:30;28.90;57.90
48806;DHT22;34625;47.176;27.548;2023-07-13T14:51:46;29.00;58.50
48806;DHT22;34625;47.176;27.548;2023-07-13T14:54:12;29.00;58.60
48806;DHT22;34625;47.176;27.548;2023-07-13T14:56:38;28.80;58.20
48806;DHT22;34625;47.176;27.548;2023-07-13T14:59:04;29.00;58.60
48806;DHT22;34625;47.176;27.548;2023-07-13T15:01:31;29.00;58.70
48806;DHT22;34625;47.176;27.548;2023-07-13T15:03:57;28.90;58.20
48806;DHT22;34625;47.176;27.548;2023-07-13T15:06:24;28.90;58.10
48806;DHT22;34625;47.176;27.548;2023-07-13T15:08:50;28.80;58.20
48806;DHT22;34625;47.176;27.548;2023-07-13T15:11:16;28.90;58.40
48806;DHT22;34625;47.176;27.548;2023-07-13T15:13:42;28.90;58.60
48806;DHT22;34625;47.176;27.548;2023-07-13T15:16:23;29.00;59.20
48806;DHT22;34625;47.176;27.548;2023-07-13T15:18:50;29.00;59.20
48806;DHT22;34625;47.176;27.548;2023-07-13T15:21:23;29.00;59.10
48806;DHT22;34625;47.176;27.548;2023-07-13T15:23:50;29.00;59.00
48806;DHT22;34625;47.176;27.548;2023-07-13T15:26:18;28.90;58.70
48806;DHT22;34625;47.176;27.548;2023-07-13T15:28:45;29.00;59.80
48806;DHT22;34625;47.176;27.548;2023-07-13T15:31:24;29.00;60.30
48806;DHT22;34625;47.176;27.548;2023-07-13T15:33:51;29.20;59.80
48806;DHT22;34625;47.176;27.548;2023-07-13T15:36:22;29.10;59.80
48806;DHT22;34625;47.176;27.548;2023-07-13T15:38:49;29.10;60.00
48806;DHT22;34625;47.176;27.548;2023-07-13T15:41:24;29.20;59.90
48806;DHT22;34625;47.176;27.548;2023-07-13T15:43:53;29.20;59.60
48806;DHT22;34625;47.176;27.548;2023-07-13T15:46:21;29.30;61.00
48806;DHT22;34625;47.176;27.548;2023-07-13T15:48:49;29.30;59.60
48806;DHT22;34625;47.176;27.548;2023-07-13T15:51:26;29.40;59.30
48806;DHT22;34625;47.176;27.548;2023-07-13T15:53:55;29.30;59.30
48806;DHT22;34625;47.176;27.548;2023-07-13T15:56:27;29.20;59.20
48806;DHT22;34625;47.176;27.548;2023-07-13T15:58:54;29.40;59.10
48806;DHT22;34625;47.176;27.548;2023-07-13T16:01:22;29.30;59.00
48806;DHT22;34625;47.176;27.548;2023-07-13T16:03:49;29.30;59.20
48806;DHT22;34625;47.176;27.548;2023-07-13T16:06:22;29.40;59.40
48806;DHT22;34625;47.176;27.548;2023-07-13T16:08:49;29.40;59.40
48806;DHT22;34625;47.176;27.548;2023-07-13T16:11:22;29.50;59.30
48806;DHT22;34625;47.176;27.548;2023-07-13T16:13:49;29.50;59.10